Decoded Metar for K7N0 ( in ) (IATA:) | Meteo·Mobile Aviation Weather
aviador You're here:

K7N0 Decoded Metar

in
Report Time2019-07-24 03:56:00
UTC Time2019-07-24 04:59:51
Flight Rules vfr VFR
Wind040° at 11 Gusting to 16 kt
Visibility9999 m
Phenomena:N/A
Clouds:Overcast 047 Hf
Expected CloudBase > 1,200 ft AGL from Temp-Dew spread
Ceiling4,700 ft
Temp25°C
Dew Point22°C (83% RH)
QNH1015 hPa
Raw Report
K7N0 240356Z AUTO 04011G16KT 10SM OVC047 25/22 A2998 RMK AO2
SLP152 T02500222=

Extra information for K7N0:More info

Social comments